GTI8002 LEZG-OERK
Flight info
| Callsign | GTI8002 |
|---|---|
| Flight time | 5h 12m |
| Altitude | 34000 |
| Route | PONEN N870 BCN/N0490F380 N725 OSPOK/N0491F370 DCT NOLVI DCT ORKUM/N0490F380 DCT ELSAG DCT ALG DCT ARSIK/N0490F370 DCT ULKEN DCT RUTOM/N0485F390 UM601 TRL UL612 SIT UL607 PAXIS L607 NABSI P557 OBRAN DCT REXUM DCT WEJ J874 GAS G662 SIVIS |
| Aircraft | B748/H-SDE3FGHIM1M2RWXY/LB1 |
Departure
| Time | 2026-05-07 05:37 |
|---|---|
| Airport | Zaragoza Airport (LEZG) |
Arrival
| Time | 2026-05-07 10:49 |
|---|---|
| Airport | King Khalid International Airport (OERK) |
| Time | Latitude | Longitude | Altitude | Speed | Heading |
|---|---|---|---|---|---|
| 2026-05-07 04:54 | 41.66558 | -1.01391 | 878 ft | 0 kts | 30° |
| 2026-05-07 05:18 | 41.66554 | -1.01394 | 878 ft | 3 kts | 30° |
| 2026-05-07 05:19 | 41.66531 | -1.01412 | 878 ft | 4 kts | 30° |
| 2026-05-07 05:19 | 41.66511 | -1.01426 | 878 ft | 4 kts | 44° |
| 2026-05-07 05:19 | 41.66497 | -1.01445 | 878 ft | 4 kts | 81° |
| 2026-05-07 05:19 | 41.66497 | -1.01470 | 878 ft | 4 kts | 117° |
| 2026-05-07 05:20 | 41.66510 | -1.01501 | 878 ft | 4 kts | 122° |
| 2026-05-07 05:20 | 41.66514 | -1.01510 | 878 ft | 0 kts | 120° |
| 2026-05-07 05:24 | 41.66504 | -1.01487 | 878 ft | 5 kts | 120° |
| 2026-05-07 05:24 | 41.66479 | -1.01428 | 878 ft | 9 kts | 120° |
| 2026-05-07 05:25 | 41.66438 | -1.01335 | 879 ft | 14 kts | 120° |
| 2026-05-07 05:25 | 41.66418 | -1.01238 | 878 ft | 11 kts | 104° |
| 2026-05-07 05:25 | 41.66377 | -1.01141 | 878 ft | 13 kts | 127° |
| 2026-05-07 05:25 | 41.66322 | -1.01044 | 878 ft | 13 kts | 127° |
| 2026-05-07 05:26 | 41.66281 | -1.01002 | 878 ft | 4 kts | 169° |
| 2026-05-07 05:26 | 41.66249 | -1.01008 | 878 ft | 6 kts | 197° |
| 2026-05-07 05:26 | 41.66218 | -1.01048 | 878 ft | 8 kts | 239° |
| 2026-05-07 05:26 | 41.66197 | -1.01137 | 878 ft | 12 kts | 255° |
| 2026-05-07 05:27 | 41.66173 | -1.01255 | 878 ft | 14 kts | 255° |
| 2026-05-07 05:27 | 41.66145 | -1.01394 | 878 ft | 17 kts | 255° |
| 2026-05-07 05:27 | 41.66129 | -1.01519 | 878 ft | 12 kts | 276° |
| 2026-05-07 05:27 | 41.66162 | -1.01617 | 878 ft | 12 kts | 300° |
| 2026-05-07 05:28 | 41.66206 | -1.01715 | 878 ft | 13 kts | 300° |
| 2026-05-07 05:28 | 41.66257 | -1.01831 | 878 ft | 16 kts | 300° |
| 2026-05-07 05:28 | 41.66314 | -1.01961 | 878 ft | 17 kts | 300° |
| 2026-05-07 05:28 | 41.66374 | -1.02102 | 878 ft | 18 kts | 300° |
| 2026-05-07 05:29 | 41.66436 | -1.02245 | 878 ft | 18 kts | 300° |
| 2026-05-07 05:29 | 41.66500 | -1.02392 | 878 ft | 18 kts | 300° |
| 2026-05-07 05:29 | 41.66542 | -1.02491 | 878 ft | 19 kts | 300° |
| 2026-05-07 05:29 | 41.66607 | -1.02640 | 878 ft | 18 kts | 300° |
| 2026-05-07 05:30 | 41.66690 | -1.02830 | 878 ft | 17 kts | 300° |
| 2026-05-07 05:30 | 41.66730 | -1.02923 | 878 ft | 17 kts | 300° |
| 2026-05-07 05:30 | 41.66787 | -1.03057 | 878 ft | 16 kts | 300° |
| 2026-05-07 05:30 | 41.66842 | -1.03184 | 878 ft | 16 kts | 300° |
| 2026-05-07 05:31 | 41.66896 | -1.03308 | 878 ft | 15 kts | 300° |
| 2026-05-07 05:31 | 41.66947 | -1.03428 | 878 ft | 15 kts | 300° |
| 2026-05-07 05:31 | 41.66998 | -1.03544 | 879 ft | 14 kts | 300° |
| 2026-05-07 05:31 | 41.67047 | -1.03657 | 878 ft | 14 kts | 300° |
| 2026-05-07 05:32 | 41.67089 | -1.03754 | 878 ft | 11 kts | 298° |
| 2026-05-07 05:32 | 41.67090 | -1.03807 | 878 ft | 4 kts | 246° |
| 2026-05-07 05:32 | 41.67069 | -1.03831 | 878 ft | 4 kts | 208° |
| 2026-05-07 05:32 | 41.67028 | -1.03862 | 878 ft | 10 kts | 211° |
| 2026-05-07 05:33 | 41.66962 | -1.03915 | 878 ft | 12 kts | 210° |
| 2026-05-07 05:33 | 41.66884 | -1.03976 | 878 ft | 14 kts | 210° |
| 2026-05-07 05:33 | 41.66798 | -1.04042 | 878 ft | 15 kts | 210° |
| 2026-05-07 05:33 | 41.66708 | -1.04112 | 878 ft | 15 kts | 210° |
| 2026-05-07 05:34 | 41.66621 | -1.04179 | 878 ft | 14 kts | 210° |
| 2026-05-07 05:34 | 41.66536 | -1.04243 | 878 ft | 14 kts | 210° |
| 2026-05-07 05:34 | 41.66453 | -1.04307 | 878 ft | 13 kts | 210° |
| 2026-05-07 05:34 | 41.66383 | -1.04362 | 878 ft | 9 kts | 211° |
| 2026-05-07 05:35 | 41.66367 | -1.04402 | 878 ft | 4 kts | 263° |
| 2026-05-07 05:35 | 41.66376 | -1.04436 | 878 ft | 5 kts | 301° |
| 2026-05-07 05:35 | 41.66399 | -1.04483 | 878 ft | 6 kts | 302° |
| 2026-05-07 05:35 | 41.66422 | -1.04535 | 878 ft | 8 kts | 301° |
| 2026-05-07 05:36 | 41.66517 | -1.04751 | 878 ft | 59 kts | 300° |
| 2026-05-07 05:36 | 41.66840 | -1.05500 | 879 ft | 126 kts | 300° |
| 2026-05-07 05:36 | 41.67371 | -1.06726 | 883 ft | 177 kts | 300° |
| 2026-05-07 05:36 | 41.68028 | -1.08234 | 1349 ft | 190 kts | 301° |
| 2026-05-07 05:37 | 41.68697 | -1.09758 | 2204 ft | 190 kts | 300° |
| 2026-05-07 05:37 | 41.69352 | -1.11286 | 2972 ft | 190 kts | 300° |
| 2026-05-07 05:37 | 41.70040 | -1.12842 | 3512 ft | 202 kts | 302° |
| 2026-05-07 05:37 | 41.70810 | -1.14457 | 4141 ft | 211 kts | 304° |
| 2026-05-07 05:38 | 41.71646 | -1.16146 | 4792 ft | 218 kts | 303° |
| 2026-05-07 05:38 | 41.72459 | -1.17910 | 5215 ft | 239 kts | 300° |
| 2026-05-07 05:38 | 41.73343 | -1.19973 | 5447 ft | 272 kts | 300° |
| 2026-05-07 05:38 | 41.74055 | -1.22296 | 6609 ft | 270 kts | 278° |
| 2026-05-07 05:39 | 41.73909 | -1.24817 | 7627 ft | 277 kts | 249° |
| 2026-05-07 05:39 | 41.72878 | -1.26987 | 8663 ft | 280 kts | 221° |
| 2026-05-07 05:39 | 41.71195 | -1.28284 | 9705 ft | 282 kts | 194° |
| 2026-05-07 05:39 | 41.69222 | -1.28437 | 10526 ft | 295 kts | 169° |
| 2026-05-07 05:40 | 41.67164 | -1.27642 | 10932 ft | 320 kts | 166° |
| 2026-05-07 05:40 | 41.64945 | -1.26885 | 11268 ft | 346 kts | 166° |
| 2026-05-07 05:40 | 41.62533 | -1.25964 | 11553 ft | 373 kts | 163° |
| 2026-05-07 05:40 | 41.60018 | -1.24683 | 11817 ft | 398 kts | 156° |
| 2026-05-07 05:41 | 41.57671 | -1.22695 | 12758 ft | 402 kts | 142° |
| 2026-05-07 05:41 | 41.55738 | -1.19947 | 13562 ft | 410 kts | 126° |
| 2026-05-07 05:41 | 41.54379 | -1.16559 | 14339 ft | 417 kts | 114° |
| 2026-05-07 05:41 | 41.53359 | -1.12959 | 15056 ft | 423 kts | 111° |
| 2026-05-07 05:42 | 41.52390 | -1.09217 | 15753 ft | 428 kts | 111° |
| 2026-05-07 05:42 | 41.51288 | -1.05504 | 16428 ft | 432 kts | 115° |
| 2026-05-07 05:42 | 41.50063 | -1.01828 | 17097 ft | 436 kts | 115° |
| 2026-05-07 05:42 | 41.48864 | -0.98075 | 17714 ft | 442 kts | 114° |
| 2026-05-07 05:43 | 41.47717 | -0.94239 | 18315 ft | 446 kts | 113° |
| 2026-05-07 05:43 | 41.46547 | -0.90382 | 18917 ft | 450 kts | 114° |
| 2026-05-07 05:43 | 41.45328 | -0.86516 | 19483 ft | 454 kts | 115° |
| 2026-05-07 05:43 | 41.44114 | -0.82671 | 20019 ft | 458 kts | 114° |
| 2026-05-07 05:44 | 41.42896 | -0.78732 | 20570 ft | 461 kts | 114° |
| 2026-05-07 05:44 | 41.41666 | -0.74764 | 21061 ft | 465 kts | 115° |
| 2026-05-07 05:44 | 41.40412 | -0.70767 | 21571 ft | 469 kts | 115° |
| 2026-05-07 05:44 | 41.39145 | -0.66745 | 22063 ft | 472 kts | 115° |
| 2026-05-07 05:45 | 41.37880 | -0.62692 | 22509 ft | 476 kts | 114° |
| 2026-05-07 05:45 | 41.36606 | -0.58613 | 22949 ft | 479 kts | 114° |
| 2026-05-07 05:45 | 41.35645 | -0.54336 | 23393 ft | 485 kts | 102° |
| 2026-05-07 05:45 | 41.35345 | -0.49904 | 23792 ft | 490 kts | 92° |
| 2026-05-07 05:46 | 41.35305 | -0.45337 | 24154 ft | 495 kts | 92° |
| 2026-05-07 05:46 | 41.35299 | -0.40738 | 24553 ft | 498 kts | 91° |
| 2026-05-07 05:46 | 41.35278 | -0.36111 | 24911 ft | 501 kts | 92° |
| 2026-05-07 05:46 | 41.35226 | -0.31447 | 25265 ft | 504 kts | 92° |
| 2026-05-07 05:47 | 41.35176 | -0.26780 | 25647 ft | 506 kts | 92° |
| 2026-05-07 05:47 | 41.35142 | -0.22073 | 25988 ft | 510 kts | 92° |
| 2026-05-07 05:47 | 41.35107 | -0.17341 | 26331 ft | 513 kts | 92° |
| 2026-05-07 05:47 | 41.35059 | -0.12580 | 26696 ft | 516 kts | 92° |
| 2026-05-07 05:48 | 41.35007 | -0.07849 | 27040 ft | 519 kts | 92° |
| 2026-05-07 05:48 | 41.34958 | -0.03018 | 27374 ft | 522 kts | 92° |
| 2026-05-07 05:48 | 41.34910 | 0.01831 | 27705 ft | 526 kts | 92° |
| 2026-05-07 05:48 | 41.34854 | 0.06709 | 28042 ft | 529 kts | 92° |
| 2026-05-07 05:49 | 41.34795 | 0.11635 | 28233 ft | 535 kts | 92° |
| 2026-05-07 05:49 | 41.34738 | 0.16586 | 28630 ft | 536 kts | 92° |
| 2026-05-07 05:49 | 41.34677 | 0.21544 | 29115 ft | 535 kts | 92° |
| 2026-05-07 05:49 | 41.34610 | 0.26506 | 29599 ft | 535 kts | 92° |
| 2026-05-07 05:50 | 41.34543 | 0.31441 | 30107 ft | 533 kts | 92° |
| 2026-05-07 05:50 | 41.34476 | 0.36375 | 30535 ft | 534 kts | 92° |
| 2026-05-07 05:50 | 41.34407 | 0.41325 | 30937 ft | 535 kts | 92° |
| 2026-05-07 05:50 | 41.34337 | 0.46231 | 31341 ft | 536 kts | 93° |
| 2026-05-07 05:51 | 41.34254 | 0.51190 | 31739 ft | 537 kts | 92° |
| 2026-05-07 05:51 | 41.34180 | 0.56168 | 32128 ft | 538 kts | 93° |
| 2026-05-07 05:51 | 41.34103 | 0.61156 | 32487 ft | 540 kts | 93° |
| 2026-05-07 05:51 | 41.34019 | 0.66173 | 32904 ft | 541 kts | 93° |
| 2026-05-07 05:52 | 41.33936 | 0.71180 | 33296 ft | 542 kts | 93° |
| 2026-05-07 05:52 | 41.33851 | 0.76198 | 33684 ft | 542 kts | 93° |
| 2026-05-07 05:52 | 41.33763 | 0.81220 | 33976 ft | 545 kts | 93° |
| 2026-05-07 05:53 | 41.33577 | 0.91349 | 33992 ft | 549 kts | 93° |
| 2026-05-07 05:53 | 41.33383 | 1.01506 | 33993 ft | 547 kts | 93° |
| 2026-05-07 05:54 | 41.33176 | 1.11584 | 33994 ft | 546 kts | 94° |
| 2026-05-07 05:54 | 41.32968 | 1.21697 | 33996 ft | 546 kts | 94° |
| 2026-05-07 05:55 | 41.32746 | 1.31820 | 33996 ft | 547 kts | 94° |
| 2026-05-07 05:55 | 41.32514 | 1.41895 | 33998 ft | 547 kts | 94° |
| 2026-05-07 05:56 | 41.32285 | 1.52031 | 33997 ft | 546 kts | 94° |
| 2026-05-07 05:56 | 41.32032 | 1.62078 | 33994 ft | 545 kts | 94° |
| 2026-05-07 05:57 | 41.31780 | 1.72181 | 33994 ft | 545 kts | 94° |
| 2026-05-07 05:57 | 41.31515 | 1.82224 | 33994 ft | 545 kts | 94° |
| 2026-05-07 05:58 | 41.31238 | 1.92338 | 33994 ft | 545 kts | 94° |
| 2026-05-07 05:58 | 41.30957 | 2.02374 | 33992 ft | 545 kts | 94° |
| 2026-05-07 05:59 | 41.30442 | 2.12433 | 34019 ft | 541 kts | 105° |
| 2026-05-07 05:59 | 41.28847 | 2.22164 | 34005 ft | 542 kts | 106° |
| 2026-05-07 06:00 | 41.27221 | 2.31977 | 34004 ft | 543 kts | 105° |
| 2026-05-07 06:00 | 41.25596 | 2.41792 | 34004 ft | 544 kts | 106° |
| 2026-05-07 06:01 | 41.23947 | 2.51632 | 33995 ft | 544 kts | 106° |
| 2026-05-07 06:01 | 41.22305 | 2.61426 | 33995 ft | 543 kts | 106° |
| 2026-05-07 06:02 | 41.20648 | 2.71198 | 33997 ft | 545 kts | 106° |
| 2026-05-07 06:02 | 41.18987 | 2.80999 | 33999 ft | 546 kts | 106° |
| 2026-05-07 06:03 | 41.17299 | 2.90881 | 34000 ft | 545 kts | 107° |
| 2026-05-07 06:03 | 41.15619 | 3.00655 | 33997 ft | 545 kts | 107° |
| 2026-05-07 06:04 | 41.13922 | 3.10487 | 33997 ft | 546 kts | 107° |
| 2026-05-07 06:04 | 41.12223 | 3.20267 | 34000 ft | 547 kts | 107° |
| 2026-05-07 06:05 | 41.10499 | 3.30136 | 34410 ft | 549 kts | 107° |
| 2026-05-07 06:05 | 41.09637 | 3.35074 | 34805 ft | 549 kts | 107° |
| 2026-05-07 06:05 | 41.08770 | 3.40008 | 35174 ft | 549 kts | 107° |
| 2026-05-07 06:05 | 41.07897 | 3.44960 | 35492 ft | 550 kts | 108° |
| 2026-05-07 06:06 | 41.07033 | 3.49832 | 35816 ft | 551 kts | 107° |
| 2026-05-07 06:06 | 41.06154 | 3.54790 | 36170 ft | 551 kts | 107° |
| 2026-05-07 06:06 | 41.05284 | 3.59700 | 36501 ft | 551 kts | 107° |
| 2026-05-07 06:06 | 41.04404 | 3.64645 | 36826 ft | 552 kts | 108° |
| 2026-05-07 06:07 | 41.03524 | 3.69565 | 37146 ft | 552 kts | 108° |
| 2026-05-07 06:07 | 41.02634 | 3.74531 | 37494 ft | 551 kts | 108° |
| 2026-05-07 06:07 | 41.01747 | 3.79476 | 37781 ft | 551 kts | 108° |
| 2026-05-07 06:07 | 41.00857 | 3.84422 | 38000 ft | 552 kts | 108° |
| 2026-05-07 06:08 | 40.99971 | 3.89315 | 38262 ft | 550 kts | 108° |
| 2026-05-07 06:08 | 40.99079 | 3.94242 | 38621 ft | 548 kts | 108° |
| 2026-05-07 06:08 | 40.98187 | 3.99159 | 38807 ft | 550 kts | 108° |
| 2026-05-07 06:08 | 40.97285 | 4.04092 | 38989 ft | 551 kts | 108° |
| 2026-05-07 06:09 | 40.96377 | 4.09050 | 38979 ft | 555 kts | 108° |
| 2026-05-07 06:09 | 40.94576 | 4.18897 | 38993 ft | 549 kts | 108° |
| 2026-05-07 06:10 | 40.92778 | 4.28638 | 38986 ft | 547 kts | 108° |
| 2026-05-07 06:10 | 40.90966 | 4.38423 | 38993 ft | 547 kts | 108° |
| 2026-05-07 06:11 | 40.89143 | 4.48207 | 38995 ft | 548 kts | 108° |
| 2026-05-07 06:11 | 40.87325 | 4.57956 | 38994 ft | 549 kts | 108° |
| 2026-05-07 06:12 | 40.85592 | 4.67814 | 39004 ft | 553 kts | 101° |
| 2026-05-07 06:12 | 40.84662 | 4.77883 | 39007 ft | 555 kts | 100° |
| 2026-05-07 06:13 | 40.83727 | 4.88029 | 39014 ft | 553 kts | 101° |
| 2026-05-07 06:13 | 40.82776 | 4.98070 | 39006 ft | 554 kts | 101° |
| 2026-05-07 06:14 | 40.81826 | 5.08193 | 39009 ft | 554 kts | 101° |
| 2026-05-07 06:14 | 40.80852 | 5.18311 | 39012 ft | 556 kts | 101° |
| 2026-05-07 06:15 | 40.79879 | 5.28454 | 39009 ft | 557 kts | 101° |
| 2026-05-07 06:15 | 40.78897 | 5.38567 | 39003 ft | 557 kts | 101° |
| 2026-05-07 06:16 | 40.77894 | 5.48733 | 38993 ft | 557 kts | 101° |
| 2026-05-07 06:16 | 40.76892 | 5.58841 | 39000 ft | 558 kts | 101° |
| 2026-05-07 06:17 | 40.75880 | 5.68972 | 39004 ft | 560 kts | 101° |
| 2026-05-07 06:17 | 40.75021 | 5.77463 | 39000 ft | 560 kts | 101° |
| 2026-05-07 06:18 | 40.73986 | 5.87674 | 38995 ft | 560 kts | 102° |
| 2026-05-07 06:18 | 40.72942 | 5.97819 | 38995 ft | 560 kts | 102° |
| 2026-05-07 06:19 | 40.71885 | 6.08026 | 38993 ft | 561 kts | 102° |
| 2026-05-07 06:19 | 40.70820 | 6.18185 | 38994 ft | 563 kts | 102° |
| 2026-05-07 06:20 | 40.69743 | 6.28397 | 38996 ft | 563 kts | 102° |
| 2026-05-07 06:20 | 40.68655 | 6.38632 | 38995 ft | 562 kts | 102° |
| 2026-05-07 06:21 | 40.67562 | 6.48784 | 38993 ft | 561 kts | 102° |
| 2026-05-07 06:21 | 40.66462 | 6.58978 | 38992 ft | 560 kts | 102° |
| 2026-05-07 06:22 | 40.65352 | 6.69109 | 38985 ft | 560 kts | 102° |
| 2026-05-07 06:22 | 40.63670 | 6.84357 | 38986 ft | 560 kts | 102° |
| 2026-05-07 06:23 | 40.62545 | 6.94454 | 38993 ft | 561 kts | 102° |
| 2026-05-07 06:23 | 40.61398 | 7.04670 | 38997 ft | 563 kts | 102° |
| 2026-05-07 06:24 | 40.60247 | 7.14819 | 39001 ft | 564 kts | 102° |
| 2026-05-07 06:24 | 40.59076 | 7.25040 | 38997 ft | 564 kts | 102° |
| 2026-05-07 06:25 | 40.57903 | 7.35281 | 38999 ft | 565 kts | 103° |
| 2026-05-07 06:25 | 40.56735 | 7.45461 | 39001 ft | 567 kts | 98° |
| 2026-05-07 06:26 | 40.56631 | 7.50656 | 39017 ft | 572 kts | 87° |
| 2026-05-07 06:26 | 40.57035 | 7.55881 | 38994 ft | 574 kts | 85° |
| 2026-05-07 06:26 | 40.57974 | 7.66359 | 39004 ft | 575 kts | 85° |
| 2026-05-07 06:27 | 40.58849 | 7.76781 | 38999 ft | 577 kts | 85° |
| 2026-05-07 06:27 | 40.59746 | 7.87307 | 39004 ft | 578 kts | 85° |
| 2026-05-07 06:28 | 40.60621 | 7.97754 | 39003 ft | 576 kts | 85° |
| 2026-05-07 06:28 | 40.61492 | 8.08253 | 38994 ft | 576 kts | 85° |
| 2026-05-07 06:29 | 40.62353 | 8.18706 | 38998 ft | 577 kts | 85° |
| 2026-05-07 06:29 | 40.63207 | 8.29245 | 38989 ft | 577 kts | 85° |
| 2026-05-07 06:30 | 40.64047 | 8.39705 | 39001 ft | 576 kts | 85° |
| 2026-05-07 06:30 | 40.64159 | 8.50120 | 39021 ft | 568 kts | 101° |
| 2026-05-07 06:31 | 40.63095 | 8.60400 | 39008 ft | 567 kts | 102° |
| 2026-05-07 06:31 | 40.62031 | 8.70714 | 39009 ft | 567 kts | 101° |
| 2026-05-07 06:32 | 40.60961 | 8.81002 | 39014 ft | 568 kts | 101° |
| 2026-05-07 06:32 | 40.59875 | 8.91294 | 39009 ft | 570 kts | 101° |
| 2026-05-07 06:33 | 40.58781 | 9.01641 | 39013 ft | 570 kts | 101° |
| 2026-05-07 06:33 | 40.57678 | 9.11933 | 39005 ft | 570 kts | 101° |
| 2026-05-07 06:34 | 40.56559 | 9.22297 | 39015 ft | 571 kts | 101° |
| 2026-05-07 06:34 | 40.55440 | 9.32582 | 39010 ft | 571 kts | 101° |
| 2026-05-07 06:35 | 40.54305 | 9.42911 | 39008 ft | 572 kts | 101° |
| 2026-05-07 06:35 | 40.53156 | 9.53282 | 39018 ft | 572 kts | 101° |
| 2026-05-07 06:36 | 40.51998 | 9.63659 | 39020 ft | 572 kts | 101° |
| 2026-05-07 06:36 | 40.50831 | 9.74014 | 39011 ft | 574 kts | 101° |
| 2026-05-07 06:37 | 40.49654 | 9.84379 | 39019 ft | 576 kts | 101° |
| 2026-05-07 06:37 | 40.48469 | 9.94742 | 39025 ft | 576 kts | 101° |
| 2026-05-07 06:38 | 40.47266 | 10.05146 | 39012 ft | 577 kts | 101° |
| 2026-05-07 06:38 | 40.46055 | 10.15568 | 39015 ft | 576 kts | 101° |
| 2026-05-07 06:39 | 40.44841 | 10.25962 | 39015 ft | 574 kts | 101° |
| 2026-05-07 06:39 | 40.43616 | 10.36262 | 39015 ft | 572 kts | 101° |
| 2026-05-07 06:40 | 40.42389 | 10.46600 | 39007 ft | 571 kts | 101° |
| 2026-05-07 06:40 | 40.41148 | 10.56900 | 39006 ft | 570 kts | 101° |
| 2026-05-07 06:41 | 40.39916 | 10.67118 | 39011 ft | 568 kts | 101° |
| 2026-05-07 06:41 | 40.38670 | 10.77304 | 39009 ft | 567 kts | 101° |
| 2026-05-07 06:42 | 40.37418 | 10.87516 | 39001 ft | 565 kts | 101° |
| 2026-05-07 06:42 | 40.36156 | 10.97690 | 38999 ft | 562 kts | 101° |
| 2026-05-07 06:43 | 40.34899 | 11.07784 | 38996 ft | 562 kts | 101° |
| 2026-05-07 06:43 | 40.33630 | 11.17877 | 39006 ft | 560 kts | 101° |
| 2026-05-07 06:44 | 40.32366 | 11.27880 | 38993 ft | 558 kts | 101° |
| 2026-05-07 06:44 | 40.31083 | 11.37929 | 38993 ft | 558 kts | 101° |
| 2026-05-07 06:45 | 40.29794 | 11.47981 | 39003 ft | 557 kts | 101° |
| 2026-05-07 06:45 | 40.28507 | 11.57936 | 38993 ft | 557 kts | 101° |
| 2026-05-07 06:46 | 40.27207 | 11.67903 | 38995 ft | 557 kts | 101° |
| 2026-05-07 06:46 | 40.25899 | 11.77905 | 39002 ft | 556 kts | 101° |
| 2026-05-07 06:47 | 40.24583 | 11.87889 | 38999 ft | 556 kts | 101° |
| 2026-05-07 06:47 | 40.23248 | 11.97900 | 38995 ft | 557 kts | 101° |
| 2026-05-07 06:48 | 40.21919 | 12.07850 | 39001 ft | 558 kts | 101° |
| 2026-05-07 06:48 | 40.20575 | 12.17840 | 38988 ft | 557 kts | 101° |
| 2026-05-07 06:49 | 40.19219 | 12.27815 | 38986 ft | 556 kts | 101° |
| 2026-05-07 06:49 | 40.17865 | 12.37731 | 38981 ft | 555 kts | 101° |
| 2026-05-07 06:50 | 40.16500 | 12.47669 | 38985 ft | 554 kts | 101° |
| 2026-05-07 06:50 | 40.15133 | 12.57529 | 38983 ft | 552 kts | 101° |
| 2026-05-07 06:51 | 40.13765 | 12.67380 | 38983 ft | 551 kts | 101° |
| 2026-05-07 06:51 | 40.12378 | 12.77252 | 38985 ft | 550 kts | 102° |
| 2026-05-07 06:52 | 40.11001 | 12.87032 | 38979 ft | 548 kts | 102° |
| 2026-05-07 06:52 | 40.09609 | 12.96807 | 38977 ft | 546 kts | 102° |
| 2026-05-07 06:53 | 40.08217 | 13.06582 | 38979 ft | 545 kts | 102° |
| 2026-05-07 06:53 | 40.06825 | 13.16245 | 38982 ft | 544 kts | 102° |
| 2026-05-07 06:54 | 40.05418 | 13.25969 | 39000 ft | 544 kts | 102° |
| 2026-05-07 06:54 | 40.04007 | 13.35679 | 38998 ft | 544 kts | 102° |
| 2026-05-07 06:55 | 40.02590 | 13.45340 | 38993 ft | 543 kts | 102° |
| 2026-05-07 06:55 | 40.01162 | 13.55041 | 39001 ft | 542 kts | 102° |
| 2026-05-07 06:56 | 39.99737 | 13.64654 | 39000 ft | 541 kts | 103° |
| 2026-05-07 06:56 | 39.98292 | 13.74328 | 39001 ft | 545 kts | 103° |
| 2026-05-07 06:57 | 39.96845 | 13.83994 | 38994 ft | 544 kts | 103° |
| 2026-05-07 06:57 | 39.95382 | 13.93684 | 39007 ft | 543 kts | 103° |
| 2026-05-07 06:58 | 39.93917 | 14.03315 | 39011 ft | 542 kts | 103° |
| 2026-05-07 06:58 | 39.92447 | 14.12962 | 39008 ft | 543 kts | 103° |
| 2026-05-07 06:59 | 39.90967 | 14.22572 | 39028 ft | 543 kts | 103° |
| 2026-05-07 06:59 | 39.89482 | 14.32200 | 39019 ft | 545 kts | 103° |
| 2026-05-07 07:00 | 39.87975 | 14.41895 | 39021 ft | 545 kts | 103° |
| 2026-05-07 07:00 | 39.86463 | 14.51601 | 39011 ft | 546 kts | 103° |
| 2026-05-07 07:01 | 39.84942 | 14.61238 | 39018 ft | 546 kts | 103° |
| 2026-05-07 07:01 | 39.83411 | 14.70949 | 39020 ft | 547 kts | 103° |
| 2026-05-07 07:02 | 39.81864 | 14.80661 | 39014 ft | 547 kts | 103° |
| 2026-05-07 07:02 | 39.80321 | 14.90315 | 39027 ft | 547 kts | 103° |
| 2026-05-07 07:03 | 39.78760 | 15.00022 | 39030 ft | 547 kts | 104° |
| 2026-05-07 07:03 | 39.77199 | 15.09663 | 39052 ft | 546 kts | 104° |
| 2026-05-07 07:04 | 39.75633 | 15.19321 | 39051 ft | 545 kts | 104° |
| 2026-05-07 07:04 | 39.74063 | 15.28903 | 39055 ft | 543 kts | 104° |
| 2026-05-07 07:05 | 39.72492 | 15.38484 | 39060 ft | 541 kts | 104° |
| 2026-05-07 07:05 | 39.71180 | 15.46407 | 39069 ft | 539 kts | 104° |
| 2026-05-07 07:06 | 39.69592 | 15.55943 | 39081 ft | 538 kts | 104° |
| 2026-05-07 07:06 | 39.68023 | 15.65382 | 39098 ft | 536 kts | 104° |
| 2026-05-07 07:07 | 39.66426 | 15.74870 | 39096 ft | 536 kts | 104° |
| 2026-05-07 07:07 | 39.64842 | 15.84262 | 39104 ft | 535 kts | 105° |
| 2026-05-07 07:08 | 39.63242 | 15.93701 | 39114 ft | 534 kts | 105° |
| 2026-05-07 07:08 | 39.61600 | 16.03051 | 39127 ft | 531 kts | 111° |
| 2026-05-07 07:09 | 39.58724 | 16.11834 | 39146 ft | 529 kts | 118° |
| 2026-05-07 07:09 | 39.55624 | 16.20525 | 39150 ft | 530 kts | 118° |
| 2026-05-07 07:10 | 39.52569 | 16.29189 | 39156 ft | 531 kts | 118° |
| 2026-05-07 07:10 | 39.49472 | 16.37862 | 39149 ft | 533 kts | 118° |
| 2026-05-07 07:11 | 39.46349 | 16.46635 | 39149 ft | 536 kts | 118° |
| 2026-05-07 07:11 | 39.43221 | 16.55369 | 39147 ft | 537 kts | 118° |
| 2026-05-07 07:12 | 39.40085 | 16.64107 | 39148 ft | 538 kts | 118° |
| 2026-05-07 07:12 | 39.36911 | 16.72923 | 39151 ft | 539 kts | 118° |
| 2026-05-07 07:13 | 39.33746 | 16.81683 | 39140 ft | 541 kts | 118° |
| 2026-05-07 07:13 | 39.30542 | 16.90534 | 39123 ft | 543 kts | 119° |
| 2026-05-07 07:14 | 39.27345 | 16.99339 | 39101 ft | 544 kts | 119° |
| 2026-05-07 07:14 | 39.24111 | 17.08211 | 39099 ft | 544 kts | 119° |
| 2026-05-07 07:15 | 39.20902 | 17.16992 | 39096 ft | 544 kts | 119° |
| 2026-05-07 07:15 | 39.17663 | 17.25831 | 39087 ft | 545 kts | 119° |
| 2026-05-07 07:16 | 39.14428 | 17.34629 | 39090 ft | 546 kts | 119° |
| 2026-05-07 07:16 | 39.11152 | 17.43514 | 39091 ft | 547 kts | 119° |
| 2026-05-07 07:17 | 39.07892 | 17.52325 | 39093 ft | 548 kts | 119° |
| 2026-05-07 07:17 | 39.04599 | 17.61204 | 39091 ft | 548 kts | 119° |
| 2026-05-07 07:18 | 39.01319 | 17.70026 | 39091 ft | 548 kts | 120° |
| 2026-05-07 07:18 | 38.98004 | 17.78904 | 39089 ft | 550 kts | 120° |
| 2026-05-07 07:19 | 38.94700 | 17.87736 | 39082 ft | 551 kts | 120° |
| 2026-05-07 07:19 | 38.91361 | 17.96641 | 39082 ft | 552 kts | 120° |
| 2026-05-07 07:20 | 38.88018 | 18.05505 | 39082 ft | 555 kts | 120° |
| 2026-05-07 07:20 | 38.84640 | 18.14459 | 39081 ft | 557 kts | 119° |
| 2026-05-07 07:21 | 38.81262 | 18.23384 | 39082 ft | 558 kts | 119° |
| 2026-05-07 07:21 | 38.77855 | 18.32350 | 39080 ft | 558 kts | 120° |
| 2026-05-07 07:22 | 38.74464 | 18.41250 | 39083 ft | 559 kts | 120° |
| 2026-05-07 07:22 | 38.71038 | 18.50214 | 39080 ft | 559 kts | 120° |
| 2026-05-07 07:23 | 38.67605 | 18.59178 | 39086 ft | 560 kts | 120° |
| 2026-05-07 07:23 | 38.64179 | 18.68087 | 39080 ft | 562 kts | 120° |
| 2026-05-07 07:24 | 38.60721 | 18.77064 | 39082 ft | 561 kts | 120° |
| 2026-05-07 07:24 | 38.57272 | 18.85978 | 39087 ft | 562 kts | 120° |
| 2026-05-07 07:25 | 38.52068 | 18.99472 | 39091 ft | 565 kts | 115° |
| 2026-05-07 07:26 | 38.49481 | 19.08954 | 39100 ft | 569 kts | 110° |
| 2026-05-07 07:26 | 38.46978 | 19.18544 | 39099 ft | 569 kts | 110° |
| 2026-05-07 07:27 | 38.44448 | 19.28078 | 39101 ft | 571 kts | 110° |
| 2026-05-07 07:27 | 38.41909 | 19.37710 | 39102 ft | 572 kts | 111° |
| 2026-05-07 07:28 | 38.39338 | 19.47338 | 39097 ft | 573 kts | 110° |
| 2026-05-07 07:28 | 38.36793 | 19.56949 | 39107 ft | 576 kts | 111° |
| 2026-05-07 07:29 | 38.34189 | 19.66609 | 39111 ft | 578 kts | 110° |
| 2026-05-07 07:29 | 38.31577 | 19.76349 | 39116 ft | 580 kts | 111° |
| 2026-05-07 07:30 | 38.28962 | 19.86037 | 39116 ft | 581 kts | 111° |
| 2026-05-07 07:30 | 38.26308 | 19.95793 | 39115 ft | 582 kts | 111° |
| 2026-05-07 07:31 | 38.23672 | 20.05494 | 39118 ft | 583 kts | 111° |
| 2026-05-07 07:31 | 38.20999 | 20.15259 | 39116 ft | 584 kts | 111° |
| 2026-05-07 07:32 | 38.18343 | 20.24967 | 39114 ft | 583 kts | 111° |
| 2026-05-07 07:32 | 38.15658 | 20.34681 | 39110 ft | 581 kts | 112° |
| 2026-05-07 07:33 | 38.13003 | 20.44312 | 39105 ft | 579 kts | 111° |
| 2026-05-07 07:33 | 38.10058 | 20.53830 | 39104 ft | 577 kts | 118° |
| 2026-05-07 07:34 | 38.06593 | 20.62947 | 39111 ft | 575 kts | 118° |
| 2026-05-07 07:34 | 38.03153 | 20.72131 | 39106 ft | 574 kts | 118° |
| 2026-05-07 07:35 | 37.99685 | 20.81265 | 39110 ft | 574 kts | 118° |
| 2026-05-07 07:35 | 37.96246 | 20.90342 | 39102 ft | 576 kts | 118° |
| 2026-05-07 07:36 | 37.92728 | 20.99595 | 39112 ft | 583 kts | 117° |
| 2026-05-07 07:36 | 37.89205 | 21.08813 | 39118 ft | 584 kts | 117° |
| 2026-05-07 07:37 | 37.85666 | 21.18085 | 39126 ft | 584 kts | 117° |
| 2026-05-07 07:37 | 37.82129 | 21.27278 | 39122 ft | 582 kts | 117° |
| 2026-05-07 07:38 | 37.78585 | 21.36515 | 39124 ft | 582 kts | 118° |
| 2026-05-07 07:38 | 37.75046 | 21.45646 | 39119 ft | 582 kts | 117° |
| 2026-05-07 07:39 | 37.71477 | 21.54846 | 39144 ft | 582 kts | 117° |
| 2026-05-07 07:39 | 37.67920 | 21.64033 | 39138 ft | 582 kts | 118° |
| 2026-05-07 07:40 | 37.64360 | 21.73150 | 39126 ft | 583 kts | 117° |
| 2026-05-07 07:40 | 37.60773 | 21.82344 | 39126 ft | 582 kts | 118° |
| 2026-05-07 07:41 | 37.57160 | 21.91492 | 39124 ft | 581 kts | 118° |
| 2026-05-07 07:41 | 37.53610 | 22.00622 | 39126 ft | 584 kts | 119° |
| 2026-05-07 07:42 | 37.49989 | 22.09696 | 39138 ft | 578 kts | 117° |
| 2026-05-07 07:42 | 37.46446 | 22.18791 | 39142 ft | 578 kts | 118° |
| 2026-05-07 07:43 | 37.42819 | 22.27846 | 39137 ft | 580 kts | 116° |
| 2026-05-07 07:43 | 37.38873 | 22.36680 | 39140 ft | 576 kts | 128° |
| 2026-05-07 07:44 | 37.34192 | 22.44782 | 39125 ft | 575 kts | 128° |
| 2026-05-07 07:44 | 37.29511 | 22.52976 | 39121 ft | 577 kts | 127° |
| 2026-05-07 07:45 | 37.24785 | 22.61164 | 39139 ft | 579 kts | 128° |
| 2026-05-07 07:45 | 37.20083 | 22.69298 | 39144 ft | 578 kts | 128° |
| 2026-05-07 07:46 | 37.15367 | 22.77464 | 39139 ft | 576 kts | 128° |
| 2026-05-07 07:46 | 37.10661 | 22.85559 | 39131 ft | 576 kts | 128° |
| 2026-05-07 07:47 | 37.05926 | 22.93681 | 39143 ft | 577 kts | 127° |
| 2026-05-07 07:47 | 37.01185 | 23.01835 | 39125 ft | 578 kts | 127° |
| 2026-05-07 07:48 | 36.96461 | 23.09904 | 39124 ft | 577 kts | 128° |
| 2026-05-07 07:48 | 36.91707 | 23.18019 | 39120 ft | 578 kts | 127° |
| 2026-05-07 07:49 | 36.86933 | 23.26141 | 39124 ft | 579 kts | 127° |
| 2026-05-07 07:49 | 36.82185 | 23.34216 | 39128 ft | 579 kts | 127° |
| 2026-05-07 07:50 | 36.77371 | 23.42311 | 39135 ft | 580 kts | 127° |
| 2026-05-07 07:50 | 36.73402 | 23.49059 | 39139 ft | 581 kts | 126° |
| 2026-05-07 07:51 | 36.67770 | 23.58491 | 39147 ft | 582 kts | 127° |
| 2026-05-07 07:51 | 36.62928 | 23.66570 | 39132 ft | 584 kts | 128° |
| 2026-05-07 07:52 | 36.58906 | 23.73355 | 39127 ft | 584 kts | 126° |
| 2026-05-07 07:52 | 36.54030 | 23.81478 | 39129 ft | 586 kts | 127° |
| 2026-05-07 07:53 | 36.49119 | 23.89619 | 39139 ft | 588 kts | 127° |
| 2026-05-07 07:53 | 36.44231 | 23.97801 | 39140 ft | 590 kts | 127° |
| 2026-05-07 07:54 | 36.39313 | 24.05891 | 39146 ft | 589 kts | 126° |
| 2026-05-07 07:54 | 36.34431 | 24.14099 | 39151 ft | 588 kts | 126° |
| 2026-05-07 07:55 | 36.29551 | 24.22183 | 39157 ft | 589 kts | 127° |
| 2026-05-07 07:55 | 36.24641 | 24.30315 | 39145 ft | 590 kts | 126° |
| 2026-05-07 07:56 | 36.19757 | 24.38419 | 39156 ft | 587 kts | 126° |
| 2026-05-07 07:56 | 36.14795 | 24.46489 | 39151 ft | 586 kts | 126° |
| 2026-05-07 07:57 | 36.09949 | 24.54538 | 39149 ft | 585 kts | 127° |
| 2026-05-07 07:57 | 36.04987 | 24.62521 | 39150 ft | 582 kts | 128° |
| 2026-05-07 07:58 | 36.00123 | 24.70546 | 39156 ft | 581 kts | 127° |
| 2026-05-07 07:58 | 35.95235 | 24.78439 | 39155 ft | 581 kts | 126° |
| 2026-05-07 07:59 | 35.90353 | 24.86369 | 39155 ft | 582 kts | 126° |
| 2026-05-07 07:59 | 35.85448 | 24.94319 | 39160 ft | 578 kts | 126° |
| 2026-05-07 08:00 | 35.80598 | 25.02128 | 39158 ft | 576 kts | 127° |
| 2026-05-07 08:00 | 35.75732 | 25.09975 | 39157 ft | 573 kts | 126° |
| 2026-05-07 08:01 | 35.70913 | 25.17722 | 39157 ft | 571 kts | 126° |
| 2026-05-07 08:01 | 35.66079 | 25.25457 | 39151 ft | 568 kts | 126° |
| 2026-05-07 08:02 | 35.61256 | 25.33165 | 39161 ft | 567 kts | 126° |
| 2026-05-07 08:02 | 35.56434 | 25.40853 | 39157 ft | 567 kts | 127° |
| 2026-05-07 08:03 | 35.51635 | 25.48458 | 39158 ft | 565 kts | 126° |
| 2026-05-07 08:03 | 35.46824 | 25.56114 | 39157 ft | 564 kts | 126° |
| 2026-05-07 08:04 | 35.42028 | 25.63703 | 39158 ft | 565 kts | 126° |
| 2026-05-07 08:04 | 35.37200 | 25.71336 | 39161 ft | 565 kts | 126° |
| 2026-05-07 08:05 | 35.32399 | 25.78892 | 39158 ft | 565 kts | 126° |
| 2026-05-07 08:05 | 35.27567 | 25.86504 | 39160 ft | 565 kts | 126° |
| 2026-05-07 08:06 | 35.22718 | 25.94110 | 39165 ft | 565 kts | 126° |
| 2026-05-07 08:06 | 35.17871 | 26.01692 | 39161 ft | 565 kts | 127° |
| 2026-05-07 08:07 | 35.13075 | 26.09186 | 39160 ft | 556 kts | 126° |
| 2026-05-07 08:07 | 35.08316 | 26.16620 | 39154 ft | 554 kts | 127° |
| 2026-05-07 08:07 | 35.05745 | 26.20051 | 39182 ft | 555 kts | 139° |
| 2026-05-07 08:08 | 35.02815 | 26.23144 | 39162 ft | 556 kts | 140° |
| 2026-05-07 08:08 | 34.96883 | 26.29256 | 39167 ft | 557 kts | 139° |
| 2026-05-07 08:09 | 34.91008 | 26.35394 | 39164 ft | 559 kts | 139° |
| 2026-05-07 08:09 | 34.85075 | 26.41533 | 39167 ft | 557 kts | 139° |
| 2026-05-07 08:10 | 34.79216 | 26.47608 | 39162 ft | 556 kts | 139° |
| 2026-05-07 08:10 | 34.73338 | 26.53677 | 39165 ft | 556 kts | 140° |
| 2026-05-07 08:11 | 34.67409 | 26.59785 | 39166 ft | 556 kts | 140° |
| 2026-05-07 08:11 | 34.61530 | 26.65840 | 39159 ft | 555 kts | 140° |
| 2026-05-07 08:12 | 34.55626 | 26.71897 | 39160 ft | 554 kts | 139° |
| 2026-05-07 08:12 | 34.49769 | 26.77895 | 39160 ft | 553 kts | 140° |
| 2026-05-07 08:13 | 34.43870 | 26.83955 | 39160 ft | 553 kts | 140° |
| 2026-05-07 08:13 | 34.38007 | 26.89914 | 39163 ft | 551 kts | 140° |
| 2026-05-07 08:14 | 34.32140 | 26.95914 | 39155 ft | 550 kts | 141° |
| 2026-05-07 08:14 | 34.26294 | 27.01861 | 39161 ft | 549 kts | 140° |
| 2026-05-07 08:15 | 34.20478 | 27.07755 | 39164 ft | 547 kts | 140° |
| 2026-05-07 08:15 | 34.14637 | 27.13675 | 39162 ft | 545 kts | 140° |
| 2026-05-07 08:16 | 34.08870 | 27.19513 | 39163 ft | 543 kts | 140° |
| 2026-05-07 08:16 | 34.03072 | 27.25360 | 39160 ft | 542 kts | 141° |
| 2026-05-07 08:17 | 33.97287 | 27.31201 | 39160 ft | 540 kts | 141° |
| 2026-05-07 08:17 | 33.91281 | 27.36510 | 39166 ft | 537 kts | 148° |
| 2026-05-07 08:18 | 33.85045 | 27.41463 | 39166 ft | 535 kts | 147° |
| 2026-05-07 08:18 | 33.78912 | 27.46446 | 39166 ft | 533 kts | 148° |
| 2026-05-07 08:19 | 33.72718 | 27.51389 | 39166 ft | 533 kts | 148° |
| 2026-05-07 08:19 | 33.66587 | 27.56327 | 39167 ft | 532 kts | 148° |
| 2026-05-07 08:20 | 33.60407 | 27.61253 | 39167 ft | 532 kts | 148° |
| 2026-05-07 08:20 | 33.54279 | 27.66158 | 39166 ft | 531 kts | 148° |
| 2026-05-07 08:21 | 33.48111 | 27.71067 | 39168 ft | 532 kts | 148° |
| 2026-05-07 08:21 | 33.41933 | 27.75993 | 39169 ft | 533 kts | 148° |
| 2026-05-07 08:22 | 33.35765 | 27.80891 | 39172 ft | 534 kts | 148° |
| 2026-05-07 08:22 | 33.29536 | 27.85832 | 39176 ft | 536 kts | 148° |
| 2026-05-07 08:23 | 33.23314 | 27.90760 | 39175 ft | 536 kts | 148° |
| 2026-05-07 08:23 | 33.17126 | 27.95652 | 39174 ft | 535 kts | 148° |
| 2026-05-07 08:24 | 33.10933 | 28.00530 | 39173 ft | 535 kts | 148° |
| 2026-05-07 08:24 | 33.04751 | 28.05412 | 39173 ft | 527 kts | 148° |
| 2026-05-07 08:25 | 32.98673 | 28.10187 | 39168 ft | 525 kts | 148° |
| 2026-05-07 08:25 | 32.92570 | 28.14977 | 39168 ft | 525 kts | 148° |
| 2026-05-07 08:26 | 32.83419 | 28.22147 | 39177 ft | 525 kts | 148° |
| 2026-05-07 08:26 | 32.77291 | 28.26942 | 39177 ft | 526 kts | 148° |
| 2026-05-07 08:27 | 32.71157 | 28.31722 | 39180 ft | 526 kts | 148° |
| 2026-05-07 08:27 | 32.65081 | 28.36470 | 39178 ft | 525 kts | 148° |
| 2026-05-07 08:28 | 32.58952 | 28.41224 | 39176 ft | 525 kts | 148° |
| 2026-05-07 08:28 | 32.52882 | 28.45948 | 39176 ft | 525 kts | 148° |
| 2026-05-07 08:29 | 32.46752 | 28.50697 | 39179 ft | 526 kts | 148° |
| 2026-05-07 08:29 | 32.40603 | 28.55462 | 39165 ft | 527 kts | 148° |
| 2026-05-07 08:30 | 32.34500 | 28.60173 | 39155 ft | 526 kts | 148° |
| 2026-05-07 08:30 | 32.28364 | 28.64909 | 39154 ft | 525 kts | 148° |
| 2026-05-07 08:31 | 32.22251 | 28.69616 | 39155 ft | 524 kts | 148° |
| 2026-05-07 08:31 | 32.16162 | 28.74303 | 39151 ft | 524 kts | 148° |
| 2026-05-07 08:32 | 32.10040 | 28.78999 | 39155 ft | 523 kts | 148° |
| 2026-05-07 08:32 | 32.03974 | 28.83650 | 39154 ft | 522 kts | 148° |
| 2026-05-07 08:33 | 31.97878 | 28.88317 | 39151 ft | 522 kts | 148° |
| 2026-05-07 08:33 | 31.91790 | 28.92970 | 39151 ft | 521 kts | 148° |
| 2026-05-07 08:34 | 31.85693 | 28.97616 | 39156 ft | 520 kts | 148° |
| 2026-05-07 08:34 | 31.79634 | 29.02233 | 39152 ft | 520 kts | 148° |
| 2026-05-07 08:35 | 31.73305 | 29.06155 | 39172 ft | 515 kts | 166° |
| 2026-05-07 08:35 | 31.66292 | 29.07296 | 39162 ft | 507 kts | 182° |
| 2026-05-07 08:36 | 31.59263 | 29.07391 | 39155 ft | 507 kts | 182° |
| 2026-05-07 08:36 | 31.52196 | 29.07487 | 39158 ft | 508 kts | 182° |
| 2026-05-07 08:37 | 31.45117 | 29.07592 | 39155 ft | 508 kts | 182° |
| 2026-05-07 08:37 | 31.38065 | 29.07685 | 39157 ft | 509 kts | 182° |
| 2026-05-07 08:38 | 31.32157 | 29.07775 | 39156 ft | 509 kts | 182° |
| 2026-05-07 08:38 | 31.23913 | 29.07885 | 39153 ft | 508 kts | 182° |
| 2026-05-07 08:39 | 31.16836 | 29.07990 | 39151 ft | 507 kts | 182° |
| 2026-05-07 08:39 | 31.09815 | 29.08086 | 39146 ft | 506 kts | 182° |
| 2026-05-07 08:40 | 31.03943 | 29.08172 | 39147 ft | 506 kts | 182° |
| 2026-05-07 08:40 | 30.96878 | 29.08274 | 39144 ft | 508 kts | 182° |
| 2026-05-07 08:41 | 30.89827 | 29.08373 | 39154 ft | 509 kts | 182° |
| 2026-05-07 08:41 | 30.82720 | 29.08478 | 39155 ft | 510 kts | 182° |
| 2026-05-07 08:42 | 30.75626 | 29.08578 | 39155 ft | 508 kts | 182° |
| 2026-05-07 08:42 | 30.68590 | 29.08679 | 39154 ft | 507 kts | 182° |
| 2026-05-07 08:43 | 30.61535 | 29.08777 | 39151 ft | 506 kts | 182° |
| 2026-05-07 08:43 | 30.54483 | 29.09247 | 39170 ft | 511 kts | 170° |
| 2026-05-07 08:44 | 30.51058 | 29.10427 | 39166 ft | 516 kts | 159° |
| 2026-05-07 08:44 | 30.47889 | 29.12313 | 39175 ft | 520 kts | 148° |
| 2026-05-07 08:44 | 30.45025 | 29.14893 | 39178 ft | 522 kts | 136° |
| 2026-05-07 08:44 | 30.42458 | 29.17895 | 39160 ft | 523 kts | 135° |
| 2026-05-07 08:45 | 30.37412 | 29.23992 | 39157 ft | 521 kts | 135° |
| 2026-05-07 08:45 | 30.32404 | 29.29991 | 39145 ft | 521 kts | 135° |
| 2026-05-07 08:46 | 30.30078 | 29.33195 | 39161 ft | 521 kts | 124° |
| 2026-05-07 08:46 | 30.28144 | 29.36763 | 39146 ft | 521 kts | 122° |
| 2026-05-07 08:46 | 30.24379 | 29.43960 | 39143 ft | 521 kts | 122° |
| 2026-05-07 08:47 | 30.20597 | 29.51054 | 39146 ft | 521 kts | 122° |
| 2026-05-07 08:47 | 30.16804 | 29.58221 | 39148 ft | 520 kts | 122° |
| 2026-05-07 08:48 | 30.13040 | 29.65301 | 39147 ft | 519 kts | 122° |
| 2026-05-07 08:48 | 30.09244 | 29.72426 | 39148 ft | 520 kts | 123° |
| 2026-05-07 08:49 | 30.05467 | 29.79515 | 39151 ft | 521 kts | 123° |
| 2026-05-07 08:49 | 30.01639 | 29.86669 | 39150 ft | 522 kts | 123° |
| 2026-05-07 08:50 | 29.97838 | 29.93775 | 39143 ft | 521 kts | 123° |
| 2026-05-07 08:50 | 29.94047 | 30.00844 | 39127 ft | 520 kts | 123° |
| 2026-05-07 08:51 | 29.90226 | 30.07951 | 39123 ft | 519 kts | 123° |
| 2026-05-07 08:51 | 29.86426 | 30.15008 | 39123 ft | 519 kts | 123° |
| 2026-05-07 08:52 | 29.82624 | 30.22065 | 39125 ft | 520 kts | 123° |
| 2026-05-07 08:52 | 29.78795 | 30.29164 | 39128 ft | 521 kts | 123° |
| 2026-05-07 08:53 | 29.74950 | 30.36256 | 39135 ft | 522 kts | 123° |
| 2026-05-07 08:53 | 29.71132 | 30.43310 | 39131 ft | 521 kts | 123° |
| 2026-05-07 08:54 | 29.67309 | 30.50342 | 39127 ft | 519 kts | 123° |
| 2026-05-07 08:54 | 29.63481 | 30.57385 | 39125 ft | 519 kts | 123° |
| 2026-05-07 08:55 | 29.59652 | 30.64408 | 39127 ft | 520 kts | 124° |
| 2026-05-07 08:55 | 29.55809 | 30.71462 | 39130 ft | 520 kts | 124° |
| 2026-05-07 08:56 | 29.51966 | 30.78478 | 39145 ft | 520 kts | 124° |
| 2026-05-07 08:56 | 29.48109 | 30.85530 | 39140 ft | 519 kts | 124° |
| 2026-05-07 08:57 | 29.44281 | 30.92501 | 39129 ft | 517 kts | 124° |
| 2026-05-07 08:57 | 29.40445 | 30.99485 | 39127 ft | 516 kts | 124° |
| 2026-05-07 08:58 | 29.36621 | 31.06432 | 39126 ft | 517 kts | 124° |
| 2026-05-07 08:58 | 29.32770 | 31.13415 | 39120 ft | 517 kts | 124° |
| 2026-05-07 08:59 | 29.28933 | 31.20357 | 39118 ft | 517 kts | 125° |
| 2026-05-07 08:59 | 29.25071 | 31.27341 | 39121 ft | 518 kts | 125° |
| 2026-05-07 09:00 | 29.21235 | 31.34266 | 39116 ft | 517 kts | 125° |
| 2026-05-07 09:00 | 29.17377 | 31.41212 | 39105 ft | 515 kts | 125° |
| 2026-05-07 09:01 | 29.13525 | 31.48142 | 39103 ft | 515 kts | 125° |
| 2026-05-07 09:01 | 29.09699 | 31.55007 | 39104 ft | 515 kts | 125° |
| 2026-05-07 09:02 | 29.05843 | 31.61922 | 39105 ft | 516 kts | 126° |
| 2026-05-07 09:02 | 29.01969 | 31.68854 | 39107 ft | 516 kts | 126° |
| 2026-05-07 09:03 | 28.98130 | 31.75716 | 39107 ft | 515 kts | 126° |
| 2026-05-07 09:03 | 28.94255 | 31.82626 | 39105 ft | 515 kts | 126° |
| 2026-05-07 09:04 | 28.90404 | 31.89479 | 39096 ft | 514 kts | 126° |
| 2026-05-07 09:04 | 28.86539 | 31.96352 | 39095 ft | 514 kts | 126° |
| 2026-05-07 09:05 | 28.82679 | 32.03201 | 39096 ft | 515 kts | 127° |
| 2026-05-07 09:05 | 28.78796 | 32.10078 | 39090 ft | 514 kts | 127° |
| 2026-05-07 09:06 | 28.74920 | 32.16940 | 39088 ft | 513 kts | 127° |
| 2026-05-07 09:06 | 28.71058 | 32.23755 | 39082 ft | 514 kts | 127° |
| 2026-05-07 09:07 | 28.67178 | 32.30602 | 39080 ft | 515 kts | 127° |
| 2026-05-07 09:07 | 28.63299 | 32.37427 | 39061 ft | 515 kts | 127° |
| 2026-05-07 09:08 | 28.59391 | 32.44286 | 39054 ft | 515 kts | 127° |
| 2026-05-07 09:08 | 28.55511 | 32.51106 | 39045 ft | 515 kts | 128° |
| 2026-05-07 09:09 | 28.51605 | 32.57937 | 39045 ft | 514 kts | 127° |
| 2026-05-07 09:09 | 28.47688 | 32.64798 | 39036 ft | 516 kts | 127° |
| 2026-05-07 09:10 | 28.43783 | 32.71613 | 39007 ft | 517 kts | 127° |
| 2026-05-07 09:10 | 28.39853 | 32.78464 | 39011 ft | 516 kts | 127° |
| 2026-05-07 09:11 | 28.35925 | 32.85304 | 39009 ft | 516 kts | 127° |
| 2026-05-07 09:11 | 28.32012 | 32.92095 | 39001 ft | 516 kts | 127° |
| 2026-05-07 09:12 | 28.28084 | 32.98922 | 38995 ft | 515 kts | 128° |
| 2026-05-07 09:12 | 28.24172 | 33.05687 | 38986 ft | 515 kts | 128° |
| 2026-05-07 09:13 | 28.20233 | 33.12508 | 38988 ft | 515 kts | 128° |
| 2026-05-07 09:13 | 28.16314 | 33.19267 | 38978 ft | 514 kts | 128° |
| 2026-05-07 09:14 | 28.12381 | 33.26050 | 38974 ft | 514 kts | 128° |
| 2026-05-07 09:14 | 28.08466 | 33.32789 | 38980 ft | 513 kts | 129° |
| 2026-05-07 09:15 | 28.04526 | 33.39560 | 38980 ft | 513 kts | 129° |
| 2026-05-07 09:15 | 28.00581 | 33.46324 | 38977 ft | 514 kts | 129° |
| 2026-05-07 09:16 | 27.96649 | 33.53062 | 38982 ft | 515 kts | 130° |
| 2026-05-07 09:16 | 27.92687 | 33.59843 | 38975 ft | 516 kts | 129° |
| 2026-05-07 09:17 | 27.88727 | 33.66604 | 38976 ft | 515 kts | 129° |
| 2026-05-07 09:17 | 27.84794 | 33.73309 | 38981 ft | 514 kts | 130° |
| 2026-05-07 09:18 | 27.80831 | 33.80055 | 38976 ft | 513 kts | 129° |
| 2026-05-07 09:18 | 27.76898 | 33.86737 | 38974 ft | 512 kts | 130° |
| 2026-05-07 09:19 | 27.72933 | 33.93470 | 38974 ft | 513 kts | 130° |
| 2026-05-07 09:19 | 27.68965 | 34.00187 | 38979 ft | 515 kts | 130° |
| 2026-05-07 09:20 | 27.65008 | 34.06891 | 38977 ft | 515 kts | 130° |
| 2026-05-07 09:20 | 27.61026 | 34.13610 | 38980 ft | 513 kts | 130° |
| 2026-05-07 09:21 | 27.57085 | 34.20269 | 38980 ft | 512 kts | 130° |
| 2026-05-07 09:21 | 27.53106 | 34.26960 | 38980 ft | 513 kts | 130° |
| 2026-05-07 09:22 | 27.49135 | 34.33641 | 38975 ft | 515 kts | 130° |
| 2026-05-07 09:22 | 27.45136 | 34.40354 | 38985 ft | 515 kts | 130° |
| 2026-05-07 09:23 | 27.41150 | 34.47038 | 38981 ft | 516 kts | 130° |
| 2026-05-07 09:23 | 27.37147 | 34.53748 | 38982 ft | 516 kts | 131° |
| 2026-05-07 09:24 | 27.33144 | 34.60421 | 38979 ft | 516 kts | 131° |
| 2026-05-07 09:24 | 27.29813 | 34.65991 | 38981 ft | 516 kts | 131° |
| 2026-05-07 09:25 | 27.25140 | 34.73771 | 38982 ft | 516 kts | 131° |
| 2026-05-07 09:25 | 27.21802 | 34.79333 | 38985 ft | 515 kts | 131° |
| 2026-05-07 09:26 | 27.17778 | 34.86017 | 38977 ft | 515 kts | 131° |
| 2026-05-07 09:26 | 27.13760 | 34.92682 | 38976 ft | 514 kts | 131° |
| 2026-05-07 09:27 | 27.09753 | 34.99323 | 38976 ft | 514 kts | 131° |
| 2026-05-07 09:28 | 27.03732 | 35.09272 | 38974 ft | 515 kts | 131° |
| 2026-05-07 09:28 | 26.99730 | 35.15885 | 38981 ft | 516 kts | 132° |
| 2026-05-07 09:29 | 26.95675 | 35.22564 | 38982 ft | 516 kts | 132° |
| 2026-05-07 09:29 | 26.91632 | 35.29227 | 38983 ft | 516 kts | 132° |
| 2026-05-07 09:30 | 26.87589 | 35.35858 | 38980 ft | 517 kts | 132° |
| 2026-05-07 09:30 | 26.83521 | 35.42535 | 38978 ft | 517 kts | 132° |
| 2026-05-07 09:31 | 26.79481 | 35.49159 | 38980 ft | 516 kts | 132° |
| 2026-05-07 09:31 | 26.75421 | 35.55796 | 38979 ft | 516 kts | 133° |
| 2026-05-07 09:32 | 26.71381 | 35.62394 | 38972 ft | 517 kts | 133° |
| 2026-05-07 09:32 | 26.67314 | 35.69029 | 38972 ft | 516 kts | 133° |
| 2026-05-07 09:33 | 26.63275 | 35.75608 | 38971 ft | 514 kts | 133° |
| 2026-05-07 09:33 | 26.59214 | 35.82214 | 38968 ft | 514 kts | 133° |
| 2026-05-07 09:34 | 26.55180 | 35.88763 | 38959 ft | 514 kts | 133° |
| 2026-05-07 09:34 | 26.51111 | 35.95365 | 38960 ft | 515 kts | 133° |
| 2026-05-07 09:35 | 26.47042 | 36.01949 | 38962 ft | 515 kts | 134° |
| 2026-05-07 09:35 | 26.42991 | 36.08504 | 38952 ft | 516 kts | 134° |
| 2026-05-07 09:36 | 26.38895 | 36.15113 | 38955 ft | 516 kts | 134° |
| 2026-05-07 09:36 | 26.34836 | 36.21656 | 38952 ft | 515 kts | 134° |
| 2026-05-07 09:37 | 26.30754 | 36.28233 | 38950 ft | 514 kts | 134° |
| 2026-05-07 09:37 | 26.26680 | 36.34780 | 38950 ft | 513 kts | 134° |
| 2026-05-07 09:38 | 26.22617 | 36.41313 | 38951 ft | 514 kts | 131° |
| 2026-05-07 09:38 | 26.20888 | 36.44795 | 38956 ft | 528 kts | 122° |
| 2026-05-07 09:38 | 26.19618 | 36.48694 | 38952 ft | 541 kts | 111° |
| 2026-05-07 09:38 | 26.18910 | 36.52854 | 38959 ft | 553 kts | 101° |
| 2026-05-07 09:39 | 26.18820 | 36.57172 | 38959 ft | 562 kts | 90° |
| 2026-05-07 09:39 | 26.19636 | 36.65827 | 38944 ft | 565 kts | 88° |
| 2026-05-07 09:40 | 26.20531 | 36.74542 | 38945 ft | 565 kts | 89° |
| 2026-05-07 09:40 | 26.21377 | 36.83254 | 38946 ft | 565 kts | 89° |
| 2026-05-07 09:41 | 26.22245 | 36.91906 | 38943 ft | 564 kts | 89° |
| 2026-05-07 09:41 | 26.23091 | 37.00598 | 38943 ft | 564 kts | 89° |
| 2026-05-07 09:42 | 26.23942 | 37.09308 | 38939 ft | 565 kts | 89° |
| 2026-05-07 09:42 | 26.24781 | 37.18000 | 38937 ft | 566 kts | 89° |
| 2026-05-07 09:43 | 26.25625 | 37.26721 | 38926 ft | 564 kts | 89° |
| 2026-05-07 09:43 | 26.26445 | 37.35377 | 38927 ft | 564 kts | 89° |
| 2026-05-07 09:44 | 26.27277 | 37.44090 | 38928 ft | 565 kts | 89° |
| 2026-05-07 09:44 | 26.28093 | 37.52748 | 38935 ft | 565 kts | 89° |
| 2026-05-07 09:45 | 26.28910 | 37.61471 | 38935 ft | 565 kts | 89° |
| 2026-05-07 09:45 | 26.29726 | 37.70209 | 38950 ft | 564 kts | 90° |
| 2026-05-07 09:46 | 26.30523 | 37.78863 | 38950 ft | 564 kts | 90° |
| 2026-05-07 09:46 | 26.31329 | 37.87574 | 38958 ft | 565 kts | 90° |
| 2026-05-07 09:47 | 26.32124 | 37.96267 | 38956 ft | 566 kts | 90° |
| 2026-05-07 09:47 | 26.32921 | 38.05018 | 38963 ft | 566 kts | 90° |
| 2026-05-07 09:48 | 26.33707 | 38.13717 | 38963 ft | 566 kts | 90° |
| 2026-05-07 09:48 | 26.34491 | 38.22471 | 38961 ft | 566 kts | 90° |
| 2026-05-07 09:49 | 26.35262 | 38.31176 | 38962 ft | 567 kts | 90° |
| 2026-05-07 09:49 | 26.36041 | 38.39954 | 38965 ft | 568 kts | 90° |
| 2026-05-07 09:50 | 26.36807 | 38.48720 | 38966 ft | 568 kts | 90° |
| 2026-05-07 09:50 | 26.37574 | 38.57517 | 38965 ft | 568 kts | 90° |
| 2026-05-07 09:51 | 26.38328 | 38.66262 | 38961 ft | 568 kts | 90° |
| 2026-05-07 09:51 | 26.39078 | 38.75015 | 38961 ft | 569 kts | 90° |
| 2026-05-07 09:52 | 26.39829 | 38.83826 | 38962 ft | 570 kts | 90° |
| 2026-05-07 09:52 | 26.40575 | 38.92670 | 38965 ft | 572 kts | 90° |
| 2026-05-07 09:53 | 26.41315 | 39.01475 | 38965 ft | 572 kts | 90° |
| 2026-05-07 09:53 | 26.42043 | 39.10279 | 38967 ft | 573 kts | 90° |
| 2026-05-07 09:54 | 26.42783 | 39.19164 | 38966 ft | 573 kts | 90° |
| 2026-05-07 09:54 | 26.43473 | 39.28044 | 38970 ft | 571 kts | 93° |
| 2026-05-07 09:55 | 26.43923 | 39.36875 | 38981 ft | 573 kts | 92° |
| 2026-05-07 09:55 | 26.44374 | 39.45725 | 38980 ft | 572 kts | 93° |
| 2026-05-07 09:56 | 26.44806 | 39.54621 | 38980 ft | 574 kts | 93° |
| 2026-05-07 09:56 | 26.45254 | 39.63546 | 38980 ft | 575 kts | 93° |
| 2026-05-07 09:57 | 26.45674 | 39.72418 | 38980 ft | 575 kts | 93° |
| 2026-05-07 09:57 | 26.46110 | 39.81353 | 38982 ft | 575 kts | 93° |
| 2026-05-07 09:58 | 26.46520 | 39.90213 | 38989 ft | 575 kts | 93° |
| 2026-05-07 09:58 | 26.46944 | 39.99171 | 38986 ft | 575 kts | 94° |
| 2026-05-07 09:59 | 26.47350 | 40.08053 | 38992 ft | 576 kts | 94° |
| 2026-05-07 09:59 | 26.47756 | 40.17003 | 38993 ft | 575 kts | 93° |
| 2026-05-07 10:00 | 26.48151 | 40.25872 | 38997 ft | 574 kts | 94° |
| 2026-05-07 10:00 | 26.48545 | 40.34782 | 38990 ft | 573 kts | 94° |
| 2026-05-07 10:01 | 26.48931 | 40.43648 | 39004 ft | 573 kts | 94° |
| 2026-05-07 10:01 | 26.49311 | 40.52558 | 39006 ft | 574 kts | 93° |
| 2026-05-07 10:02 | 26.49685 | 40.61451 | 39007 ft | 575 kts | 93° |
| 2026-05-07 10:02 | 26.50058 | 40.70398 | 39006 ft | 576 kts | 94° |
| 2026-05-07 10:03 | 26.50420 | 40.79308 | 39002 ft | 576 kts | 94° |
| 2026-05-07 10:03 | 26.50779 | 40.88249 | 39014 ft | 574 kts | 93° |
| 2026-05-07 10:04 | 26.51132 | 40.97094 | 39008 ft | 572 kts | 94° |
| 2026-05-07 10:04 | 26.51315 | 41.05983 | 39053 ft | 566 kts | 101° |
| 2026-05-07 10:05 | 26.50701 | 41.14715 | 39038 ft | 567 kts | 102° |
| 2026-05-07 10:05 | 26.50084 | 41.23523 | 39037 ft | 568 kts | 101° |
| 2026-05-07 10:06 | 26.49464 | 41.32264 | 39034 ft | 568 kts | 102° |
| 2026-05-07 10:06 | 26.48831 | 41.41064 | 39033 ft | 568 kts | 101° |
| 2026-05-07 10:07 | 26.48194 | 41.49891 | 39036 ft | 570 kts | 102° |
| 2026-05-07 10:07 | 26.47558 | 41.58656 | 39036 ft | 570 kts | 102° |
| 2026-05-07 10:08 | 26.46908 | 41.67483 | 39036 ft | 569 kts | 102° |
| 2026-05-07 10:08 | 26.46258 | 41.76289 | 39034 ft | 568 kts | 102° |
| 2026-05-07 10:09 | 26.45600 | 41.85035 | 39023 ft | 569 kts | 102° |
| 2026-05-07 10:09 | 26.44938 | 41.93852 | 39008 ft | 570 kts | 102° |
| 2026-05-07 10:10 | 26.44262 | 42.02704 | 39001 ft | 572 kts | 102° |
| 2026-05-07 10:10 | 26.43593 | 42.11502 | 39004 ft | 570 kts | 102° |
| 2026-05-07 10:11 | 26.42909 | 42.20333 | 38997 ft | 569 kts | 102° |
| 2026-05-07 10:11 | 26.42230 | 42.29076 | 39002 ft | 568 kts | 102° |
| 2026-05-07 10:12 | 26.41540 | 42.37870 | 38995 ft | 568 kts | 102° |
| 2026-05-07 10:12 | 26.40847 | 42.46640 | 39000 ft | 570 kts | 102° |
| 2026-05-07 10:13 | 26.40259 | 42.53998 | 39004 ft | 571 kts | 102° |
| 2026-05-07 10:13 | 26.39436 | 42.64276 | 39000 ft | 569 kts | 102° |
| 2026-05-07 10:14 | 26.38841 | 42.71600 | 38998 ft | 568 kts | 102° |
| 2026-05-07 10:14 | 26.38129 | 42.80383 | 38990 ft | 568 kts | 102° |
| 2026-05-07 10:15 | 26.37405 | 42.89161 | 38991 ft | 570 kts | 102° |
| 2026-05-07 10:15 | 26.36680 | 42.97982 | 38996 ft | 569 kts | 101° |
| 2026-05-07 10:16 | 26.35945 | 43.06730 | 38985 ft | 570 kts | 102° |
| 2026-05-07 10:16 | 26.35213 | 43.15531 | 38981 ft | 571 kts | 101° |
| 2026-05-07 10:17 | 26.34464 | 43.24353 | 38978 ft | 571 kts | 102° |
| 2026-05-07 10:17 | 26.33707 | 43.33198 | 38977 ft | 572 kts | 101° |
| 2026-05-07 10:18 | 26.32953 | 43.41983 | 38982 ft | 573 kts | 101° |
| 2026-05-07 10:18 | 26.32189 | 43.50847 | 38980 ft | 571 kts | 101° |
| 2026-05-07 10:19 | 26.31421 | 43.59668 | 38977 ft | 570 kts | 102° |
| 2026-05-07 10:19 | 26.30649 | 43.68427 | 38971 ft | 571 kts | 101° |
| 2026-05-07 10:20 | 26.29559 | 43.77180 | 38983 ft | 561 kts | 113° |
| 2026-05-07 10:20 | 26.28287 | 43.81184 | 38984 ft | 550 kts | 123° |
| 2026-05-07 10:20 | 26.26597 | 43.84986 | 38969 ft | 546 kts | 126° |
| 2026-05-07 10:21 | 26.23115 | 43.92529 | 38973 ft | 548 kts | 126° |
| 2026-05-07 10:21 | 26.19665 | 44.00057 | 38971 ft | 547 kts | 126° |
| 2026-05-07 10:22 | 26.16185 | 44.07590 | 38975 ft | 546 kts | 126° |
| 2026-05-07 10:22 | 26.12705 | 44.15145 | 38971 ft | 545 kts | 126° |
| 2026-05-07 10:23 | 26.09232 | 44.22644 | 38971 ft | 544 kts | 126° |
| 2026-05-07 10:23 | 26.05784 | 44.30101 | 38968 ft | 545 kts | 126° |
| 2026-05-07 10:24 | 26.02291 | 44.37611 | 38972 ft | 547 kts | 126° |
| 2026-05-07 10:24 | 25.98820 | 44.45091 | 38938 ft | 547 kts | 126° |
| 2026-05-07 10:24 | 25.97064 | 44.48867 | 38678 ft | 549 kts | 126° |
| 2026-05-07 10:25 | 25.95304 | 44.52642 | 38427 ft | 546 kts | 126° |
| 2026-05-07 10:25 | 25.93581 | 44.56339 | 38184 ft | 543 kts | 125° |
| 2026-05-07 10:25 | 25.91846 | 44.60059 | 37930 ft | 539 kts | 125° |
| 2026-05-07 10:25 | 25.90119 | 44.63748 | 37690 ft | 538 kts | 125° |
| 2026-05-07 10:26 | 25.88391 | 44.67456 | 37445 ft | 537 kts | 125° |
| 2026-05-07 10:26 | 25.86681 | 44.71103 | 37207 ft | 536 kts | 125° |
| 2026-05-07 10:26 | 25.84957 | 44.74782 | 36963 ft | 536 kts | 125° |
| 2026-05-07 10:26 | 25.83239 | 44.78452 | 36721 ft | 534 kts | 125° |
| 2026-05-07 10:27 | 25.81518 | 44.82116 | 36480 ft | 534 kts | 125° |
| 2026-05-07 10:27 | 25.79798 | 44.85773 | 36239 ft | 534 kts | 124° |
| 2026-05-07 10:27 | 25.78097 | 44.89387 | 36009 ft | 535 kts | 124° |
| 2026-05-07 10:27 | 25.76373 | 44.93053 | 35758 ft | 534 kts | 124° |
| 2026-05-07 10:28 | 25.74645 | 44.96724 | 35519 ft | 536 kts | 124° |
| 2026-05-07 10:28 | 25.72913 | 45.00396 | 35282 ft | 537 kts | 124° |
| 2026-05-07 10:28 | 25.71198 | 45.04031 | 35040 ft | 538 kts | 124° |
| 2026-05-07 10:28 | 25.69457 | 45.07720 | 34789 ft | 538 kts | 124° |
| 2026-05-07 10:29 | 25.67716 | 45.11403 | 34555 ft | 540 kts | 124° |
| 2026-05-07 10:29 | 25.65965 | 45.15099 | 34316 ft | 541 kts | 124° |
| 2026-05-07 10:29 | 25.64216 | 45.18802 | 33994 ft | 540 kts | 124° |
| 2026-05-07 10:30 | 25.60723 | 45.26186 | 32252 ft | 540 kts | 124° |
| 2026-05-07 10:30 | 25.58982 | 45.29858 | 31628 ft | 534 kts | 123° |
| 2026-05-07 10:30 | 25.57288 | 45.33441 | 31004 ft | 528 kts | 123° |
| 2026-05-07 10:30 | 25.55599 | 45.37008 | 29985 ft | 520 kts | 123° |
| 2026-05-07 10:31 | 25.53923 | 45.40529 | 29017 ft | 512 kts | 123° |
| 2026-05-07 10:31 | 25.52265 | 45.44008 | 28059 ft | 503 kts | 123° |
| 2026-05-07 10:31 | 25.50663 | 45.47380 | 27101 ft | 494 kts | 122° |
| 2026-05-07 10:31 | 25.49071 | 45.50730 | 26141 ft | 485 kts | 122° |
| 2026-05-07 10:32 | 25.47507 | 45.54011 | 25156 ft | 476 kts | 122° |
| 2026-05-07 10:32 | 25.45978 | 45.57211 | 24151 ft | 466 kts | 122° |
| 2026-05-07 10:32 | 25.44497 | 45.60328 | 23138 ft | 458 kts | 121° |
| 2026-05-07 10:32 | 25.43021 | 45.63421 | 22149 ft | 449 kts | 121° |
| 2026-05-07 10:33 | 25.41568 | 45.66454 | 21119 ft | 441 kts | 121° |
| 2026-05-07 10:33 | 25.40149 | 45.69421 | 20110 ft | 432 kts | 121° |
| 2026-05-07 10:33 | 25.38749 | 45.72346 | 19066 ft | 424 kts | 121° |
| 2026-05-07 10:33 | 25.37397 | 45.75170 | 18054 ft | 415 kts | 121° |
| 2026-05-07 10:34 | 25.36243 | 45.78069 | 17357 ft | 407 kts | 109° |
| 2026-05-07 10:34 | 25.35711 | 45.81132 | 17133 ft | 408 kts | 96° |
| 2026-05-07 10:34 | 25.35612 | 45.84283 | 16731 ft | 408 kts | 94° |
| 2026-05-07 10:34 | 25.35551 | 45.87451 | 15960 ft | 406 kts | 93° |
| 2026-05-07 10:35 | 25.35509 | 45.90587 | 15600 ft | 414 kts | 93° |
| 2026-05-07 10:35 | 25.35450 | 45.93742 | 15095 ft | 416 kts | 93° |
| 2026-05-07 10:35 | 25.35386 | 45.96930 | 14582 ft | 413 kts | 93° |
| 2026-05-07 10:35 | 25.35360 | 46.00085 | 14264 ft | 402 kts | 88° |
| 2026-05-07 10:36 | 25.35913 | 46.03030 | 14269 ft | 379 kts | 72° |
| 2026-05-07 10:36 | 25.36794 | 46.05679 | 14229 ft | 356 kts | 71° |
| 2026-05-07 10:36 | 25.37650 | 46.08213 | 14207 ft | 354 kts | 71° |
| 2026-05-07 10:36 | 25.38503 | 46.10801 | 14189 ft | 361 kts | 72° |
| 2026-05-07 10:37 | 25.39370 | 46.13420 | 13735 ft | 360 kts | 71° |
| 2026-05-07 10:37 | 25.40205 | 46.15928 | 13217 ft | 343 kts | 71° |
| 2026-05-07 10:37 | 25.41016 | 46.18349 | 12726 ft | 328 kts | 72° |
| 2026-05-07 10:37 | 25.41783 | 46.20672 | 12273 ft | 314 kts | 72° |
| 2026-05-07 10:38 | 25.42513 | 46.22896 | 11828 ft | 301 kts | 72° |
| 2026-05-07 10:38 | 25.43221 | 46.25039 | 11407 ft | 291 kts | 72° |
| 2026-05-07 10:38 | 25.43920 | 46.27151 | 10993 ft | 293 kts | 72° |
| 2026-05-07 10:38 | 25.44612 | 46.29251 | 10585 ft | 293 kts | 72° |
| 2026-05-07 10:39 | 25.45305 | 46.31359 | 10165 ft | 289 kts | 73° |
| 2026-05-07 10:39 | 25.45750 | 46.33496 | 9761 ft | 281 kts | 92° |
| 2026-05-07 10:39 | 25.45398 | 46.35578 | 9353 ft | 272 kts | 116° |
| 2026-05-07 10:39 | 25.44362 | 46.37266 | 9015 ft | 268 kts | 137° |
| 2026-05-07 10:40 | 25.42826 | 46.38454 | 8657 ft | 270 kts | 149° |
| 2026-05-07 10:40 | 25.41189 | 46.39504 | 8292 ft | 270 kts | 150° |
| 2026-05-07 10:40 | 25.39574 | 46.40517 | 7933 ft | 264 kts | 150° |
| 2026-05-07 10:40 | 25.37993 | 46.41524 | 7591 ft | 266 kts | 149° |
| 2026-05-07 10:41 | 25.36382 | 46.42566 | 7245 ft | 268 kts | 149° |
| 2026-05-07 10:41 | 25.34771 | 46.43588 | 6869 ft | 265 kts | 149° |
| 2026-05-07 10:41 | 25.33178 | 46.44592 | 6482 ft | 262 kts | 149° |
| 2026-05-07 10:41 | 25.31591 | 46.45596 | 6121 ft | 264 kts | 149° |
| 2026-05-07 10:42 | 25.30033 | 46.46580 | 5759 ft | 264 kts | 149° |
| 2026-05-07 10:42 | 25.28446 | 46.47583 | 5398 ft | 260 kts | 148° |
| 2026-05-07 10:42 | 25.26881 | 46.48584 | 5040 ft | 260 kts | 148° |
| 2026-05-07 10:42 | 25.25305 | 46.49556 | 4996 ft | 260 kts | 150° |
| 2026-05-07 10:43 | 25.23704 | 46.50529 | 4996 ft | 264 kts | 149° |
| 2026-05-07 10:43 | 25.22126 | 46.51525 | 5002 ft | 264 kts | 148° |
| 2026-05-07 10:43 | 25.20540 | 46.52556 | 4998 ft | 265 kts | 148° |
| 2026-05-07 10:43 | 25.18946 | 46.53580 | 5002 ft | 265 kts | 149° |
| 2026-05-07 10:44 | 25.17345 | 46.54599 | 4995 ft | 265 kts | 148° |
| 2026-05-07 10:44 | 25.15750 | 46.55620 | 4996 ft | 265 kts | 148° |
| 2026-05-07 10:44 | 25.14189 | 46.56620 | 4992 ft | 244 kts | 148° |
| 2026-05-07 10:44 | 25.12821 | 46.57487 | 4980 ft | 216 kts | 149° |
| 2026-05-07 10:45 | 25.11535 | 46.58301 | 4992 ft | 211 kts | 148° |
| 2026-05-07 10:45 | 25.10273 | 46.59110 | 4971 ft | 209 kts | 147° |
| 2026-05-07 10:45 | 25.09030 | 46.59907 | 4690 ft | 201 kts | 148° |
| 2026-05-07 10:45 | 25.07881 | 46.60635 | 4441 ft | 187 kts | 147° |
| 2026-05-07 10:46 | 25.06796 | 46.61317 | 4204 ft | 170 kts | 147° |
| 2026-05-07 10:46 | 25.05803 | 46.61945 | 3989 ft | 161 kts | 147° |
| 2026-05-07 10:46 | 25.04842 | 46.62570 | 3767 ft | 159 kts | 147° |
| 2026-05-07 10:46 | 25.03895 | 46.63182 | 3568 ft | 155 kts | 147° |
| 2026-05-07 10:47 | 25.02971 | 46.63769 | 3400 ft | 155 kts | 148° |
| 2026-05-07 10:47 | 25.02027 | 46.64358 | 3194 ft | 154 kts | 148° |
| 2026-05-07 10:47 | 25.01095 | 46.64955 | 3006 ft | 154 kts | 147° |
| 2026-05-07 10:47 | 25.00171 | 46.65545 | 2794 ft | 155 kts | 148° |
| 2026-05-07 10:48 | 24.99230 | 46.66130 | 2553 ft | 154 kts | 148° |
| 2026-05-07 10:48 | 24.98319 | 46.66719 | 2333 ft | 153 kts | 148° |
| 2026-05-07 10:48 | 24.97391 | 46.67302 | 2128 ft | 153 kts | 149° |
| 2026-05-07 10:48 | 24.96503 | 46.67865 | 2052 ft | 128 kts | 151° |
| 2026-05-07 10:49 | 24.95886 | 46.68252 | 2049 ft | 82 kts | 151° |
| 2026-05-07 10:49 | 24.95442 | 46.68533 | 2050 ft | 68 kts | 150° |
| 2026-05-07 10:49 | 24.95124 | 46.68736 | 2051 ft | 38 kts | 149° |
| 2026-05-07 10:49 | 24.94972 | 46.68935 | 2049 ft | 30 kts | 111° |
| 2026-05-07 10:50 | 24.94986 | 46.69100 | 2049 ft | 12 kts | 62° |
| 2026-05-07 10:50 | 24.94986 | 46.69155 | 2050 ft | 7 kts | 118° |
| 2026-05-07 10:50 | 24.94921 | 46.69205 | 2049 ft | 16 kts | 151° |
| 2026-05-07 10:50 | 24.94805 | 46.69278 | 2050 ft | 21 kts | 150° |
| 2026-05-07 10:51 | 24.94677 | 46.69360 | 2050 ft | 21 kts | 150° |
| 2026-05-07 10:51 | 24.94559 | 46.69433 | 2050 ft | 15 kts | 152° |
| 2026-05-07 10:51 | 24.94510 | 46.69505 | 2050 ft | 11 kts | 92° |
| 2026-05-07 10:51 | 24.94549 | 46.69588 | 2049 ft | 16 kts | 59° |
| 2026-05-07 10:52 | 24.94611 | 46.69706 | 2050 ft | 19 kts | 59° |
| 2026-05-07 10:52 | 24.94679 | 46.69835 | 2051 ft | 20 kts | 60° |
| 2026-05-07 10:52 | 24.94750 | 46.69971 | 2054 ft | 20 kts | 59° |
| 2026-05-07 10:52 | 24.94817 | 46.70096 | 2059 ft | 18 kts | 60° |
| 2026-05-07 10:53 | 24.94873 | 46.70204 | 2062 ft | 15 kts | 60° |
| 2026-05-07 10:53 | 24.94927 | 46.70307 | 2062 ft | 16 kts | 60° |
| 2026-05-07 10:53 | 24.94991 | 46.70428 | 2061 ft | 20 kts | 59° |
| 2026-05-07 10:53 | 24.95068 | 46.70574 | 2055 ft | 23 kts | 60° |
| 2026-05-07 10:54 | 24.95150 | 46.70730 | 2051 ft | 22 kts | 60° |
| 2026-05-07 10:54 | 24.95223 | 46.70869 | 2049 ft | 21 kts | 59° |
| 2026-05-07 10:54 | 24.95292 | 46.71000 | 2050 ft | 17 kts | 60° |
| 2026-05-07 10:54 | 24.95348 | 46.71107 | 2050 ft | 15 kts | 60° |
| 2026-05-07 10:55 | 24.95402 | 46.71212 | 2049 ft | 16 kts | 60° |
| 2026-05-07 10:55 | 24.95475 | 46.71257 | 2049 ft | 9 kts | 346° |
| 2026-05-07 10:55 | 24.95543 | 46.71213 | 2049 ft | 14 kts | 328° |
| 2026-05-07 10:55 | 24.95635 | 46.71154 | 2049 ft | 16 kts | 330° |
| 2026-05-07 10:56 | 24.95743 | 46.71085 | 2049 ft | 19 kts | 330° |
| 2026-05-07 10:56 | 24.95859 | 46.71012 | 2049 ft | 19 kts | 330° |
| 2026-05-07 10:56 | 24.95976 | 46.70940 | 2049 ft | 19 kts | 330° |
| 2026-05-07 10:56 | 24.96092 | 46.70866 | 2049 ft | 19 kts | 329° |
| 2026-05-07 10:57 | 24.96207 | 46.70794 | 2048 ft | 19 kts | 331° |
| 2026-05-07 10:57 | 24.96325 | 46.70723 | 2048 ft | 19 kts | 331° |
| 2026-05-07 10:57 | 24.96441 | 46.70650 | 2048 ft | 19 kts | 330° |
| 2026-05-07 10:57 | 24.96555 | 46.70578 | 2048 ft | 19 kts | 330° |
| 2026-05-07 10:58 | 24.96670 | 46.70505 | 2048 ft | 19 kts | 330° |
| 2026-05-07 10:58 | 24.96785 | 46.70432 | 2048 ft | 19 kts | 330° |
| 2026-05-07 10:58 | 24.96895 | 46.70362 | 2048 ft | 16 kts | 330° |
| 2026-05-07 10:58 | 24.96981 | 46.70298 | 2049 ft | 10 kts | 306° |
| 2026-05-07 10:59 | 24.96983 | 46.70255 | 2049 ft | 4 kts | 245° |
| 2026-05-07 10:59 | 24.96951 | 46.70193 | 2049 ft | 14 kts | 240° |
| 2026-05-07 10:59 | 24.96901 | 46.70098 | 2050 ft | 14 kts | 241° |
| 2026-05-07 10:59 | 24.96902 | 46.70048 | 2050 ft | 6 kts | 300° |
| 2026-05-07 11:00 | 24.96934 | 46.70018 | 2050 ft | 13 kts | 328° |
| 2026-05-07 11:00 | 24.97040 | 46.69952 | 2050 ft | 21 kts | 330° |
| 2026-05-07 11:00 | 24.97184 | 46.69863 | 2050 ft | 25 kts | 330° |
| 2026-05-07 11:00 | 24.97319 | 46.69778 | 2050 ft | 20 kts | 330° |
| 2026-05-07 11:01 | 24.97456 | 46.69706 | 2049 ft | 23 kts | 334° |
| 2026-05-07 11:01 | 24.97567 | 46.69639 | 2053 ft | 15 kts | 330° |
| 2026-05-07 11:01 | 24.97644 | 46.69589 | 2050 ft | 8 kts | 329° |
| 2026-05-07 11:01 | 24.97660 | 46.69568 | 2050 ft | 2 kts | 295° |
| 2026-05-07 11:02 | 24.97658 | 46.69551 | 2050 ft | 3 kts | 258° |
| 2026-05-07 11:02 | 24.97642 | 46.69516 | 2050 ft | 5 kts | 242° |
| 2026-05-07 11:02 | 24.97625 | 46.69483 | 2050 ft | 4 kts | 240° |
| 2026-05-07 11:02 | 24.97621 | 46.69474 | 2050 ft | 0 kts | 241° |